Main page
METAR-TAF:

METAR-TAF

Airports :

Central Park

New York, New York, United States

latitude: 40-47-00N, longitude: 073-58-00W, elevation: 47 m

Current weather observation

The report was made 9 minutes ago, at 17:51 UTC
Wind 8 kt from the West/Southwest with gusts up to 15 kt, varying between South/Southwest and West
Temperature 11°C
Humidity 94%
Pressure 1016 hPa
Visibility: 9.7 km
Broken clouds at a height of 500 ft
Overcast at a height of 900 ft
mist

METAR: KNYC 091751Z AUTO 25008G15KT 200V280 6SM BR BKN005 OVC009 11/10 A2999 RMK AO2 CIG 004V008 SLP149 60039 T01110100 10122 20061 56027

Time: 13:00 (18:00 UTC)


TAF: missing

Weather observations and forecasts of more than 4000 airports (METAR and TAF reports).

The available stations are represented by yellow and red dots on the map.

Hover mouse over dot to see the name of the station.

Then click to see weather observations and forecasts.

To change the map : click on the green buttons with a black cross to zoom in, on the green button with a dash to zoom out, or on the green arrows for adjacent maps.


METAR-TAF: